Time;durP1;ratioP1;P1;durP2;ratioP2;P2;SDS_P1;SDS_P2;PMS_P1;PMS_P2;Temp;Humidity;BMP_temperature;BMP_pressure;BME280_temperature;BME280_humidity;BME280_pressure;Samples;Min_cycle;Max_cycle;Signal;HPM_P1;HPM_P2
2023/07/31 00:00:31;;;;;;;4.97;1.55;;;;;;;18.21;100.00;100144.38;5072269;28;20574;-73
2023/07/31 00:02:56;;;;;;;3.05;1.42;;;;;;;18.21;100.00;100142.50;5071876;28;20028;-72
2023/07/31 00:05:22;;;;;;;5.20;1.60;;;;;;;18.10;100.00;100132.63;5072671;28;20036;-72
2023/07/31 00:07:47;;;;;;;6.18;1.92;;;;;;;18.05;100.00;100124.44;5073428;28;20028;-72
2023/07/31 00:10:13;;;;;;;4.55;1.48;;;;;;;18.03;100.00;100135.59;5072844;28;20123;-73
2023/07/31 00:12:39;;;;;;;5.75;1.77;;;;;;;18.10;100.00;100148.97;5075040;28;20028;-73
2023/07/31 00:15:06;;;;;;;5.30;1.50;;;;;;;18.00;100.00;100135.31;5073272;28;20526;-73
2023/07/31 00:17:32;;;;;;;3.03;1.30;;;;;;;17.93;100.00;100126.56;5088452;28;20459;-72
2023/07/31 00:19:57;;;;;;;5.15;1.30;;;;;;;17.90;100.00;100122.47;5055195;28;20032;-73
2023/07/31 00:22:23;;;;;;;4.05;1.52;;;;;;;17.97;100.00;100138.56;5073666;28;20029;-72
2023/07/31 00:24:49;;;;;;;3.30;1.50;;;;;;;17.93;100.00;100143.72;5064446;28;20140;-73
2023/07/31 00:27:14;;;;;;;6.32;1.55;;;;;;;17.92;100.00;100146.72;5090636;28;20024;-72
2023/07/31 00:29:40;;;;;;;3.92;1.50;;;;;;;17.89;100.00;100147.22;5093581;28;20440;-72
2023/07/31 00:32:06;;;;;;;3.63;1.63;;;;;;;17.54;100.00;100099.63;5098480;28;20032;-73
2023/07/31 00:34:31;;;;;;;6.22;1.70;;;;;;;17.83;100.00;100143.66;5073292;28;20475;-72
2023/07/31 00:36:57;;;;;;;3.00;1.40;;;;;;;17.78;100.00;100146.31;5055433;28;20032;-73
2023/07/31 00:39:22;;;;;;;3.58;1.55;;;;;;;17.75;100.00;100146.84;5056215;28;20047;-72
2023/07/31 00:41:48;;;;;;;5.32;1.55;;;;;;;17.68;100.00;100129.91;5091993;28;20521;-73
2023/07/31 00:44:13;;;;;;;3.30;1.80;;;;;;;17.67;100.00;100139.97;5075161;28;20079;-72
2023/07/31 00:46:38;;;;;;;3.92;1.60;;;;;;;17.67;100.00;100139.16;5109704;28;20032;-72
2023/07/31 00:49:05;;;;;;;2.35;1.35;;;;;;;17.55;100.00;100120.34;5092189;28;20676;-73
2023/07/31 00:51:31;;;;;;;6.45;1.60;;;;;;;17.60;100.00;100139.41;5092508;28;20063;-72
2023/07/31 00:53:56;;;;;;;3.38;1.48;;;;;;;17.52;100.00;100131.72;5087279;28;20428;-72
2023/07/31 00:56:23;;;;;;;5.25;1.60;;;;;;;17.53;100.00;100127.94;5071669;28;20383;-72
2023/07/31 00:58:49;;;;;;;4.30;1.70;;;;;;;17.50;100.00;100120.28;5073105;28;20036;-72
2023/07/31 01:01:15;;;;;;;3.83;1.50;;;;;;;17.36;100.00;100109.84;5054722;28;20348;-72
2023/07/31 01:03:40;;;;;;;3.47;1.52;;;;;;;17.38;100.00;100112.31;5054926;28;20523;-72
2023/07/31 01:06:08;;;;;;;4.82;1.50;;;;;;;17.42;100.00;100134.34;5054434;28;20032;-72
2023/07/31 01:08:48;;;;;;;4.10;1.48;;;;;;;17.40;100.00;100129.19;5072968;28;20514;-72
2023/07/31 01:11:28;;;;;;;5.85;1.52;;;;;;;17.32;100.00;100127.78;5077773;28;20063;-73
2023/07/31 01:13:55;;;;;;;5.05;1.55;;;;;;;17.23;100.00;100120.38;5072456;28;20047;-72
2023/07/31 01:16:21;;;;;;;7.07;1.70;;;;;;;17.08;100.00;100107.44;5076714;28;20124;-72
2023/07/31 01:18:46;;;;;;;4.43;1.60;;;;;;;17.19;100.00;100130.13;5072573;28;20032;-72
2023/07/31 01:21:21;;;;;;;3.80;1.42;;;;;;;17.16;100.00;100128.72;5070937;28;20549;-72
2023/07/31 01:23:46;;;;;;;;;;;;;;;17.07;100.00;100135.72;5071450;28;20033;-72
2023/07/31 01:26:16;;;;;;;4.85;1.80;;;;;;;17.08;100.00;100140.06;5071783;28;19919;-72
2023/07/31 01:29:17;;;;;;;4.50;1.58;;;;;;;17.10;100.00;100129.75;5070493;28;20032;-72
2023/07/31 01:31:48;;;;;;;4.15;1.90;;;;;;;17.04;100.00;100119.91;5069722;28;20036;-72
2023/07/31 01:34:17;;;;;;;4.68;2.03;;;;;;;17.07;100.00;100119.41;5070726;28;20020;-72
2023/07/31 01:36:43;;;;;;;5.38;1.73;;;;;;;17.08;100.00;100116.41;5071046;28;20070;-72
2023/07/31 01:39:08;;;;;;;6.45;1.90;;;;;;;17.05;100.00;100116.97;5054792;28;20391;-73
2023/07/31 01:41:34;;;;;;;4.22;1.92;;;;;;;17.05;100.00;100102.53;5054503;28;20029;-72
2023/07/31 01:43:59;;;;;;;4.18;2.08;;;;;;;17.01;100.00;100093.25;5071575;28;20044;-72
2023/07/31 01:46:25;;;;;;;6.80;2.53;;;;;;;17.03;100.00;100097.38;5037693;28;20032;-72
2023/07/31 01:48:50;;;;;;;4.40;2.50;;;;;;;17.00;100.00;100097.06;5071198;28;20452;-72
2023/07/31 01:51:16;;;;;;;5.40;2.20;;;;;;;17.02;100.00;100098.44;5070973;28;20039;-72
2023/07/31 01:53:41;;;;;;;6.85;2.30;;;;;;;17.02;100.00;100095.72;5070509;28;20079;-72
2023/07/31 01:56:06;;;;;;;5.20;2.60;;;;;;;17.03;100.00;100097.38;5070203;28;20024;-72
2023/07/31 01:58:32;;;;;;;6.22;2.60;;;;;;;17.04;100.00;100096.28;5054362;28;20036;-72
2023/07/31 02:00:57;;;;;;;5.57;2.53;;;;;;;16.95;100.00;100069.81;5058324;28;20132;-72
2023/07/31 02:03:23;;;;;;;8.95;2.60;;;;;;;17.06;100.00;100088.69;5038963;28;20028;-72
2023/07/31 02:05:50;;;;;;;6.15;2.58;;;;;;;17.07;100.00;100089.50;5052828;28;20028;-72
2023/07/31 02:08:16;;;;;;;9.80;2.80;;;;;;;16.95;100.00;100065.22;5058168;28;20032;-73
2023/07/31 02:10:42;;;;;;;6.05;2.83;;;;;;;17.06;100.00;100082.44;5071820;28;20051;-72
2023/07/31 02:13:07;;;;;;;5.60;2.90;;;;;;;17.06;100.00;100077.00;5070092;28;20115;-72
2023/07/31 02:15:33;;;;;;;5.45;3.00;;;;;;;17.06;100.00;100087.88;5071721;28;20423;-72
2023/07/31 02:17:58;;;;;;;6.95;3.03;;;;;;;17.05;100.00;100084.34;5073197;28;20033;-72
2023/07/31 02:20:24;;;;;;;5.10;2.70;;;;;;;16.94;100.00;100060.88;5054722;28;20507;-72
2023/07/31 02:22:49;;;;;;;7.13;3.00;;;;;;;17.10;100.00;100078.13;5070020;28;20036;-72
2023/07/31 02:25:15;;;;;;;6.38;2.70;;;;;;;17.06;100.00;100075.09;5070051;28;20044;-72
2023/07/31 02:27:41;;;;;;;8.25;2.75;;;;;;;17.14;100.00;100080.03;5053371;28;20051;-72
2023/07/31 02:30:06;;;;;;;5.35;3.00;;;;;;;17.18;100.00;100079.53;5071097;28;20032;-72
2023/07/31 02:32:32;;;;;;;4.57;2.78;;;;;;;17.21;100.00;100082.53;5071130;28;20107;-72
2023/07/31 02:34:57;;;;;;;7.43;2.92;;;;;;;17.10;100.00;100064.53;5069585;28;20032;-72
2023/07/31 02:37:23;;;;;;;4.00;2.67;;;;;;;17.23;100.00;100085.84;5070725;28;20040;-72
2023/07/31 02:39:49;;;;;;;7.00;2.67;;;;;;;17.14;100.00;100061.00;5069548;28;20028;-72
2023/07/31 02:42:14;;;;;;;8.23;2.63;;;;;;;17.29;100.00;100087.50;5069998;28;20025;-72
2023/07/31 02:44:40;;;;;;;4.85;2.70;;;;;;;17.30;100.00;100083.69;5083854;28;20024;-72
2023/07/31 02:47:05;;;;;;;5.85;3.00;;;;;;;17.34;100.00;100082.09;5069136;28;20146;-72
2023/07/31 02:49:31;;;;;;;7.43;3.17;;;;;;;17.30;100.00;100072.81;5070091;28;20060;-73
2023/07/31 02:51:56;;;;;;;5.72;2.83;;;;;;;17.37;100.00;100076.13;5087682;28;20510;-72
2023/07/31 02:54:22;;;;;;;5.35;3.03;;;;;;;17.23;100.00;100050.50;5089280;28;20570;-72
2023/07/31 02:56:48;;;;;;;4.40;3.10;;;;;;;17.37;100.00;100072.59;5091271;28;20028;-72
2023/07/31 02:59:13;;;;;;;6.97;3.50;;;;;;;17.41;100.00;100070.16;5090679;28;20032;-72
2023/07/31 03:01:39;;;;;;;9.55;3.60;;;;;;;17.34;100.00;100063.06;5090815;28;20031;-72
2023/07/31 03:04:04;;;;;;;6.15;3.17;;;;;;;17.33;100.00;100069.59;5090920;28;20540;-73
2023/07/31 03:06:30;;;;;;;6.95;3.33;;;;;;;17.34;100.00;100065.78;5086960;28;20051;-73
2023/07/31 03:08:55;;;;;;;5.88;3.30;;;;;;;17.40;100.00;100061.19;5072048;28;20051;-72
2023/07/31 03:11:21;;;;;;;9.02;3.78;;;;;;;17.30;100.00;100045.63;5053979;28;20032;-72
2023/07/31 03:13:47;;;;;;;8.27;3.78;;;;;;;17.22;100.00;100035.25;5070526;28;20024;-72
2023/07/31 03:16:12;;;;;;;8.98;4.07;;;;;;;17.41;100.00;100062.81;5070090;28;20017;-72
2023/07/31 03:18:38;;;;;;;7.90;3.85;;;;;;;17.41;100.00;100064.72;5068983;28;20020;-72
2023/07/31 03:21:04;;;;;;;8.77;4.03;;;;;;;17.33;100.00;100057.91;5068819;28;20099;-72
2023/07/31 03:23:30;;;;;;;7.13;4.10;;;;;;;17.40;100.00;100065.81;5070540;28;20029;-72
2023/07/31 03:26:00;;;;;;;9.73;4.10;;;;;;;17.36;100.00;100054.66;5068734;28;20390;-72
2023/07/31 03:28:26;;;;;;;7.97;4.32;;;;;;;17.32;100.00;100035.31;5053421;28;20033;-72
2023/07/31 03:30:52;;;;;;;5.95;4.55;;;;;;;17.45;100.00;100050.38;5070185;28;20039;-72
2023/07/31 03:33:17;;;;;;;10.38;4.15;;;;;;;17.45;100.00;100055.81;5070875;28;20032;-72
2023/07/31 03:35:43;;;;;;;8.77;4.22;;;;;;;17.43;100.00;100040.81;5071387;28;20418;-72
2023/07/31 03:38:08;;;;;;;7.55;3.72;;;;;;;17.45;100.00;100054.97;5077480;28;20028;-72
2023/07/31 03:40:34;;;;;;;7.97;3.78;;;;;;;17.47;100.00;100053.63;5089311;28;20081;-72
2023/07/31 03:42:59;;;;;;;7.90;4.07;;;;;;;17.47;100.00;100053.63;5069081;28;20502;-72
2023/07/31 03:45:25;;;;;;;8.00;3.70;;;;;;;17.49;100.00;100047.94;5070815;28;20029;-73
2023/07/31 03:47:50;;;;;;;5.95;3.67;;;;;;;17.54;100.00;100050.66;5070626;28;20475;-72
2023/07/31 03:50:16;;;;;;;8.95;3.63;;;;;;;17.54;100.00;100050.66;5086392;28;20060;-72
2023/07/31 03:52:41;;;;;;;11.38;3.40;;;;;;;17.45;100.00;100034.03;5081773;28;20107;-72
2023/07/31 03:55:07;;;;;;;8.15;3.67;;;;;;;17.33;100.00;100020.63;5106581;28;20091;-72
2023/07/31 03:57:33;;;;;;;8.02;3.47;;;;;;;17.56;100.00;100040.34;5089742;28;20032;-72
2023/07/31 03:59:58;;;;;;;8.77;3.72;;;;;;;17.64;100.00;100050.72;5089202;28;20032;-72
2023/07/31 04:02:24;;;;;;;6.13;3.45;;;;;;;17.64;100.00;100045.28;5092119;28;20358;-73
2023/07/31 04:04:49;;;;;;;10.20;3.47;;;;;;;17.56;100.00;100043.88;5115128;28;20032;-72
2023/07/31 04:07:15;;;;;;;5.28;3.72;;;;;;;17.54;100.00;100034.34;5092845;28;20036;-72
2023/07/31 04:09:40;;;;;;;8.02;3.45;;;;;;;17.52;100.00;100037.34;5092845;28;20060;-72
2023/07/31 04:12:06;;;;;;;8.77;3.60;;;;;;;17.54;100.00;100037.88;5092624;28;20031;-72
2023/07/31 04:14:31;;;;;;;8.43;3.90;;;;;;;17.56;100.00;100043.06;5094118;28;20032;-72
2023/07/31 04:16:57;;;;;;;9.43;3.65;;;;;;;17.58;100.00;100043.59;5092328;28;20464;-72
2023/07/31 04:19:22;;;;;;;8.75;3.70;;;;;;;17.60;100.00;100039.56;5109472;28;20036;-72
2023/07/31 04:21:47;;;;;;;10.10;3.40;;;;;;;17.54;100.00;100020.75;5094116;28;20054;-72
2023/07/31 04:24:13;;;;;;;8.98;3.65;;;;;;;17.60;100.00;100030.56;5094107;28;20028;-72
2023/07/31 04:26:38;;;;;;;6.65;3.45;;;;;;;17.66;100.00;100032.25;5093088;28;20039;-72
2023/07/31 04:29:03;;;;;;;4.47;3.28;;;;;;;17.69;100.00;100033.63;5092425;28;20600;-72
2023/07/31 04:31:30;;;;;;;8.85;3.97;;;;;;;17.69;100.00;100039.88;5090748;28;20028;-72
2023/07/31 04:33:56;;;;;;;11.05;3.60;;;;;;;17.77;100.00;100039.38;5097475;28;20043;-72
2023/07/31 04:36:21;;;;;;;15.05;4.60;;;;;;;17.78;100.00;100029.31;5098172;28;20020;-72
2023/07/31 04:38:46;;;;;;;13.07;4.13;;;;;;;17.81;100.00;100028.78;5095767;28;20035;-72
2023/07/31 04:41:12;;;;;;;10.93;4.20;;;;;;;17.78;100.00;100004.81;5109702;28;20039;-72
2023/07/31 04:43:39;;;;;;;9.95;3.92;;;;;;;17.92;100.00;100021.50;5109715;28;20515;-72
2023/07/31 04:46:05;;;;;;;10.23;3.90;;;;;;;17.95;100.00;100021.78;5079918;28;20115;-72
2023/07/31 04:48:30;;;;;;;12.00;4.28;;;;;;;17.90;100.00;100018.22;5089616;28;20115;-72
2023/07/31 04:50:56;;;;;;;12.98;4.25;;;;;;;17.75;100.00;100019.78;5075264;28;20071;-72
2023/07/31 04:53:21;;;;;;;12.85;4.07;;;;;;;17.63;100.00;100005.56;5092356;28;20119;-72
2023/07/31 04:55:46;;;;;;;9.68;3.60;;;;;;;17.54;100.00;100012.59;5092500;28;20027;-72
2023/07/31 04:58:12;;;;;;;12.05;3.45;;;;;;;17.51;100.00;100015.84;5092624;28;20032;-72
2023/07/31 05:00:37;;;;;;;7.85;3.20;;;;;;;17.84;100.00;100030.97;5094561;28;20581;-72
2023/07/31 05:03:03;;;;;;;9.93;3.38;;;;;;;17.95;100.00;100024.50;5108849;28;20039;-72
2023/07/31 05:05:28;;;;;;;11.50;3.42;;;;;;;18.06;100.00;100015.28;5108614;28;20112;-73
2023/07/31 05:07:54;;;;;;;10.00;3.20;;;;;;;18.09;100.00;100022.09;5091186;28;20042;-72
2023/07/31 05:10:19;;;;;;;14.75;3.45;;;;;;;18.00;100.00;100004.63;5109414;28;20032;-73
2023/07/31 05:12:45;;;;;;;10.13;3.47;;;;;;;18.03;100.00;100012.28;5090734;28;20113;-72
2023/07/31 05:15:10;;;;;;;14.27;3.22;;;;;;;18.08;100.00;100018.56;5108606;28;20084;-73
2023/07/31 05:17:35;;;;;;;9.15;2.97;;;;;;;19.24;100.00;100012.66;5093627;28;20024;-73
2023/07/31 05:20:01;;;;;;;12.20;3.20;;;;;;;20.34;100.00;100008.09;5080103;28;20447;-73
2023/07/31 05:22:26;;;;;;;9.15;3.28;;;;;;;20.92;100.00;100002.75;5071509;28;20039;-73
2023/07/31 05:24:53;;;;;;;7.72;2.75;;;;;;;21.19;100.00;100004.13;5071774;28;20032;-73
2023/07/31 05:27:19;;;;;;;7.95;2.80;;;;;;;21.39;100.00;100000.41;5038776;28;20035;-74
2023/07/31 05:29:45;;;;;;;9.70;2.95;;;;;;;20.92;100.00;99994.53;5073116;28;20505;-74
2023/07/31 05:32:11;;;;;;;10.05;2.95;;;;;;;20.94;100.00;99992.34;5071743;28;20029;-74
2023/07/31 05:34:37;;;;;;;7.95;2.58;;;;;;;20.83;100.00;99979.88;5071360;28;20031;-74
2023/07/31 05:37:02;;;;;;;8.10;2.45;;;;;;;20.81;100.00;99993.81;5087796;28;20060;-73
2023/07/31 05:39:27;;;;;;;8.38;2.40;;;;;;;20.68;100.00;99990.94;5072741;28;20058;-74
2023/07/31 05:41:53;;;;;;;11.13;2.20;;;;;;;20.68;100.00;99999.94;5038185;28;20501;-75
2023/07/31 05:44:18;;;;;;;7.95;2.45;;;;;;;20.56;100.00;99992.13;5071343;28;20024;-73
2023/07/31 05:46:44;;;;;;;11.27;2.20;;;;;;;20.57;100.00;99993.75;5072529;28;20037;-73
2023/07/31 05:49:09;;;;;;;8.32;2.15;;;;;;;20.42;100.00;99997.38;5086008;28;20121;-73
2023/07/31 05:51:35;;;;;;;9.85;2.53;;;;;;;20.38;100.00;99985.38;5063379;28;20028;-73
2023/07/31 05:54:00;;;;;;;14.05;2.85;;;;;;;20.53;100.00;99979.03;5091030;28;20031;-73
2023/07/31 05:56:27;;;;;;;7.28;2.30;;;;;;;20.73;100.00;99988.16;5093945;28;20024;-74
2023/07/31 05:58:52;;;;;;;13.65;2.50;;;;;;;20.99;100.00;99986.00;5097193;28;20032;-73
2023/07/31 06:01:18;;;;;;;7.43;2.63;;;;;;;21.32;100.00;99987.03;5076603;28;20510;-72
2023/07/31 06:03:43;;;;;;;9.90;2.50;;;;;;;21.28;100.00;99991.47;5054896;28;20398;-74
2023/07/31 06:06:09;;;;;;;10.73;2.40;;;;;;;21.60;100.00;99990.03;5071282;28;20040;-74
2023/07/31 06:08:34;;;;;;;11.80;2.72;;;;;;;21.56;100.00;99987.06;5055584;28;20036;-73
2023/07/31 06:11:00;;;;;;;9.68;2.08;;;;;;;21.52;100.00;99984.13;5070972;28;20056;-73
2023/07/31 06:13:25;;;;;;;11.93;2.30;;;;;;;21.75;100.00;99992.56;5070937;28;20036;-74
2023/07/31 06:15:51;;;;;;;12.45;2.38;;;;;;;21.80;100.00;99968.69;5054007;28;20031;-73
2023/07/31 06:18:16;;;;;;;7.30;2.00;;;;;;;21.89;100.00;99985.28;5069561;28;20331;-73
2023/07/31 06:20:42;;;;;;;7.65;2.08;;;;;;;21.80;100.00;99987.03;5068644;28;20044;-74
2023/07/31 06:23:07;;;;;;;6.57;1.83;;;;;;;21.62;100.00;99983.16;5068475;28;20047;-74
2023/07/31 06:25:33;;;;;;;8.45;1.98;;;;;;;21.30;100.00;99968.19;5069088;28;20331;-74
2023/07/31 06:27:58;;;;;;;9.52;1.98;;;;;;;21.39;100.00;99981.25;5086473;28;20028;-74
2023/07/31 06:30:24;;;;;;;6.78;2.03;;;;;;;21.27;100.00;99973.41;5052369;28;20036;-74
2023/07/31 06:32:49;;;;;;;9.60;1.90;;;;;;;21.18;100.00;99961.47;5068825;28;20403;-74
2023/07/31 06:35:15;;;;;;;9.93;2.08;;;;;;;21.11;100.00;99968.09;5053352;28;20319;-74
2023/07/31 06:37:42;;;;;;;14.13;2.15;;;;;;;21.05;100.00;99974.72;5053425;28;20027;-74
2023/07/31 06:40:08;;;;;;;10.75;1.85;;;;;;;20.87;100.00;99954.41;5070012;28;20036;-74
2023/07/31 06:42:35;;;;;;;7.60;2.00;;;;;;;20.93;100.00;99963.38;5071407;28;20028;-74
2023/07/31 06:45:01;;;;;;;9.95;2.05;;;;;;;20.88;99.80;99971.63;5071418;28;20028;-74
2023/07/31 06:47:26;;;;;;;11.38;2.38;;;;;;;20.80;100.00;99969.53;5053124;28;20033;-73
2023/07/31 06:49:51;;;;;;;9.68;1.95;;;;;;;20.79;100.00;99974.16;5071590;28;20083;-74
2023/07/31 06:52:17;;;;;;;13.27;2.25;;;;;;;20.79;100.00;99976.88;5056008;28;20028;-73
2023/07/31 06:54:42;;;;;;;10.45;1.90;;;;;;;20.72;100.00;99978.31;5062600;28;20467;-73
2023/07/31 06:57:08;;;;;;;8.95;2.08;;;;;;;20.62;100.00;99980.03;5072877;28;20494;-74
2023/07/31 06:59:33;;;;;;;14.75;2.28;;;;;;;20.57;100.00;99976.53;5070690;28;20052;-74
2023/07/31 07:01:58;;;;;;;8.55;1.77;;;;;;;20.44;100.00;99979.91;5071787;28;20475;-74
2023/07/31 07:04:24;;;;;;;9.85;1.85;;;;;;;20.11;100.00;99958.53;5053669;28;20086;-74
2023/07/31 07:06:49;;;;;;;17.42;2.85;;;;;;;19.96;100.00;99958.63;5072784;28;20105;-74
2023/07/31 07:09:15;;;;;;;17.70;2.75;;;;;;;19.92;100.00;99998.50;5106892;28;20101;-73
2023/07/31 07:11:40;;;;;;;11.10;2.28;;;;;;;19.75;100.00;99998.06;5090275;28;20032;-74
2023/07/31 07:14:06;;;;;;;7.55;2.00;;;;;;;19.66;100.00;99997.81;5083871;28;20032;-72
2023/07/31 07:16:31;;;;;;;10.05;2.08;;;;;;;19.43;100.00;99991.84;5090109;28;20121;-73
2023/07/31 07:18:57;;;;;;;5.55;1.52;;;;;;;19.28;100.00;100004.72;5090064;28;20055;-72
2023/07/31 07:21:23;;;;;;;5.20;1.60;;;;;;;19.16;100.00;100007.75;5103774;28;20021;-72
2023/07/31 07:23:48;;;;;;;7.13;1.90;;;;;;;19.19;100.00;99997.09;5062214;28;20086;-71
2023/07/31 07:26:13;;;;;;;9.63;2.15;;;;;;;19.17;100.00;99996.56;5072032;28;20028;-70
2023/07/31 07:28:39;;;;;;;12.55;1.98;;;;;;;19.25;100.00;99995.19;5072890;28;20048;-72
2023/07/31 07:31:04;;;;;;;7.18;2.03;;;;;;;19.31;100.00;99988.63;5071114;28;20040;-72
2023/07/31 07:33:30;;;;;;;9.50;2.33;;;;;;;19.37;100.00;99992.13;5087376;28;20513;-73
2023/07/31 07:35:59;;;;;;;10.07;2.28;;;;;;;19.49;100.00;99989.91;5070829;28;20028;-72
2023/07/31 07:38:24;;;;;;;9.73;2.33;;;;;;;19.61;100.00;99987.69;5074193;28;20051;-75
2023/07/31 07:40:52;;;;;;;11.40;2.40;;;;;;;19.66;100.00;99974.03;5057430;28;20033;-73
2023/07/31 07:43:18;;;;;;;8.65;2.30;;;;;;;19.64;100.00;99962.63;5075288;28;20031;-76
2023/07/31 07:45:43;;;;;;;10.95;2.42;;;;;;;19.90;100.00;99981.56;5091992;28;20476;-75
2023/07/31 07:48:09;;;;;;;9.27;2.20;;;;;;;19.88;100.00;99964.69;5073657;28;20483;-73
2023/07/31 07:50:34;;;;;;;11.20;2.22;;;;;;;19.99;100.00;99971.72;5078695;28;20095;-73
2023/07/31 07:53:00;;;;;;;10.15;2.60;;;;;;;20.04;100.00;99979.88;5095175;28;20032;-74
2023/07/31 07:55:26;;;;;;;5.75;1.85;;;;;;;20.05;100.00;99964.31;5057508;28;20025;-75
2023/07/31 07:57:51;;;;;;;12.35;2.55;;;;;;;20.15;100.00;99975.97;5094249;28;20016;-74
2023/07/31 08:00:17;;;;;;;11.50;2.22;;;;;;;20.12;100.00;99979.28;5092266;28;20069;-76
2023/07/31 08:02:43;;;;;;;9.60;2.15;;;;;;;20.18;100.00;99977.34;5108734;28;20032;-75
2023/07/31 08:05:09;;;;;;;6.30;2.10;;;;;;;20.16;100.00;99972.16;5096091;28;20039;-74
2023/07/31 08:07:34;;;;;;;6.35;1.65;;;;;;;20.19;100.00;99978.97;5096541;28;20032;-74
2023/07/31 08:10:00;;;;;;;9.70;2.22;;;;;;;19.96;100.00;99947.69;5093513;28;20035;-74
2023/07/31 08:12:25;;;;;;;6.30;1.85;;;;;;;20.22;100.00;99977.59;5093870;28;20024;-74
2023/07/31 08:14:51;;;;;;;7.50;1.77;;;;;;;20.32;100.00;99974.78;5094813;28;20119;-75
2023/07/31 08:17:17;;;;;;;9.05;1.98;;;;;;;20.46;100.00;99964.00;5093278;28;20028;-74
2023/07/31 08:19:43;;;;;;;6.75;1.83;;;;;;;20.57;100.00;99960.16;5091912;28;20036;-74
2023/07/31 08:22:09;;;;;;;6.43;1.73;;;;;;;20.63;100.00;99957.09;5068820;28;20039;-73
2023/07/31 08:24:34;;;;;;;5.68;1.50;;;;;;;20.68;100.00;99958.13;5080949;28;20419;-75
2023/07/31 08:27:00;;;;;;;5.25;1.15;;;;;;;20.74;100.00;99967.94;5093713;28;20104;-77
2023/07/31 08:29:25;;;;;;;2.90;0.90;;;;;;;20.52;100.00;99958.25;5077158;28;20043;-77
2023/07/31 08:31:51;;;;;;;3.72;0.90;;;;;;;20.51;100.00;99953.91;5088411;28;20024;-78
2023/07/31 08:34:16;;;;;;;3.85;1.15;;;;;;;20.62;100.00;99973.75;5085270;28;20048;-74
2023/07/31 08:36:42;;;;;;;4.43;1.20;;;;;;;20.47;100.00;99973.88;5080360;28;20507;-76
2023/07/31 08:39:08;;;;;;;5.78;1.40;;;;;;;20.39;99.78;99961.59;5098942;28;20090;-74
2023/07/31 08:41:39;;;;;;;4.88;1.38;;;;;;;20.36;99.11;99949.34;5100736;28;20430;-75
2023/07/31 08:44:07;;;;;;;5.05;1.40;;;;;;;20.46;98.36;99959.38;5096280;28;20036;-77
2023/07/31 08:46:33;;;;;;;5.70;1.35;;;;;;;20.54;97.58;99957.97;5092937;28;20047;-74
2023/07/31 08:49:00;;;;;;;4.10;1.52;;;;;;;20.77;97.13;99961.88;5077330;28;20060;-75
2023/07/31 08:51:26;;;;;;;4.93;1.48;;;;;;;20.79;97.26;99963.22;5095649;28;20394;-76
2023/07/31 08:53:53;;;;;;;3.50;1.27;;;;;;;20.81;97.25;99957.47;5085158;28;20119;-76
2023/07/31 08:56:19;;;;;;;6.40;1.42;;;;;;;21.00;97.07;99969.31;5090321;28;20020;-76
2023/07/31 08:58:47;;;;;;;4.47;1.33;;;;;;;21.18;96.34;99947.78;5078546;28;20539;-76
2023/07/31 09:01:14;;;;;;;5.63;1.30;;;;;;;21.14;95.64;99931.16;5085732;28;20028;-75
2023/07/31 09:03:41;;;;;;;6.88;1.10;;;;;;;21.30;95.42;99956.41;5090358;28;20114;-74
2023/07/31 09:06:07;;;;;;;3.78;1.05;;;;;;;21.56;93.88;99948.75;5077658;28;20023;-74
2023/07/31 09:08:32;;;;;;;3.75;1.30;;;;;;;21.74;93.20;99956.16;5081168;28;20493;-74
2023/07/31 09:11:05;;;;;;;2.42;1.20;;;;;;;21.61;92.70;99954.16;5091113;28;20405;-74
2023/07/31 09:13:32;;;;;;;5.47;1.38;;;;;;;21.58;91.89;99952.00;5072057;28;20445;-74
2023/07/31 09:15:57;;;;;;;3.85;0.90;;;;;;;21.36;91.75;99955.28;5072583;28;20507;-74
2023/07/31 09:18:23;;;;;;;4.32;1.00;;;;;;;21.20;91.91;99951.88;5072481;28;20024;-74
2023/07/31 09:21:09;;;;;;;3.55;1.08;;;;;;;21.24;91.39;99952.91;5084770;28;20036;-74
2023/07/31 09:23:45;;;;;;;4.53;1.20;;;;;;;21.26;90.96;99947.16;5096645;28;20134;-74
2023/07/31 09:26:11;;;;;;;4.35;0.88;;;;;;;21.28;90.46;99953.16;5086195;28;20499;-74
2023/07/31 09:28:36;;;;;;;1.70;0.65;;;;;;;21.32;90.30;99948.72;5076233;28;20039;-74
2023/07/31 09:31:02;;;;;;;3.13;0.77;;;;;;;21.43;90.21;99944.00;5070620;28;20036;-74
2023/07/31 09:33:27;;;;;;;2.17;0.65;;;;;;;21.49;89.85;99943.63;5090379;28;20031;-74
2023/07/31 09:35:52;;;;;;;2.95;0.57;;;;;;;21.49;89.38;99949.13;5088070;28;20505;-74
2023/07/31 09:38:18;;;;;;;2.83;0.60;;;;;;;21.44;88.99;99940.94;5072667;28;20146;-74
2023/07/31 09:40:48;;;;;;;3.80;0.88;;;;;;;21.44;88.77;99949.16;5071975;28;20039;-74
2023/07/31 09:43:17;;;;;;;2.85;0.90;;;;;;;21.55;88.91;99947.91;5075217;28;20024;-74
2023/07/31 09:45:45;;;;;;;4.35;0.80;;;;;;;21.53;88.24;99941.13;5072785;28;20032;-74
2023/07/31 09:48:16;;;;;;;2.33;0.70;;;;;;;21.45;87.96;99933.53;5075184;28;20126;-74
2023/07/31 09:50:44;;;;;;;2.42;0.70;;;;;;;21.66;87.94;99943.16;5081223;28;20086;-74
2023/07/31 09:53:09;;;;;;;2.17;0.60;;;;;;;21.66;88.32;99942.34;5074584;28;20035;-74
2023/07/31 09:55:36;;;;;;;1.95;0.65;;;;;;;21.91;87.27;99936.50;5076634;28;20407;-75
2023/07/31 09:58:12;;;;;;;2.90;0.80;;;;;;;21.92;86.90;99940.88;5088696;28;20070;-75
2023/07/31 10:00:39;;;;;;;3.00;0.50;;;;;;;21.97;85.96;99938.06;5071916;28;20086;-74
2023/07/31 10:03:06;;;;;;;1.83;0.80;;;;;;;21.84;85.98;99932.50;5074576;28;20441;-74
2023/07/31 10:05:35;;;;;;;1.85;0.63;;;;;;;21.85;85.53;99929.44;5088462;28;20036;-75
2023/07/31 10:08:01;;;;;;;2.63;0.70;;;;;;;21.94;85.10;99933.16;5082134;28;20020;-75
2023/07/31 10:10:28;;;;;;;1.98;0.90;;;;;;;22.04;84.97;99930.28;5092479;28;20088;-75
2023/07/31 10:12:55;;;;;;;2.35;0.70;;;;;;;22.07;84.38;99934.34;5107737;28;20047;-75
2023/07/31 10:15:21;;;;;;;2.75;0.60;;;;;;;22.12;83.53;99933.44;5071169;28;20073;-75
2023/07/31 10:17:48;;;;;;;2.90;0.80;;;;;;;22.36;82.86;99925.97;5054847;28;20380;-75
2023/07/31 10:20:16;;;;;;;2.50;0.63;;;;;;;22.62;82.28;99934.59;5097918;28;20165;-74
2023/07/31 10:22:42;;;;;;;1.83;0.85;;;;;;;22.50;82.50;99917.81;5082339;28;20118;-75
2023/07/31 10:25:08;;;;;;;2.78;0.60;;;;;;;22.62;81.94;99920.88;5070076;28;20061;-74
2023/07/31 10:27:35;;;;;;;2.95;0.60;;;;;;;22.52;81.67;99935.59;5062786;28;20757;-75
2023/07/31 10:30:04;;;;;;;2.58;0.70;;;;;;;22.55;81.22;99939.66;5081094;28;20035;-75
2023/07/31 10:32:30;;;;;;;1.98;0.80;;;;;;;22.61;80.83;99932.94;5087932;28;20360;-74
2023/07/31 10:34:56;;;;;;;1.73;0.60;;;;;;;22.62;79.73;99915.41;5071617;28;20082;-75
2023/07/31 10:37:27;;;;;;;2.50;0.80;;;;;;;23.07;78.34;99923.13;5070359;28;20032;-75
2023/07/31 10:40:03;;;;;;;2.33;0.65;;;;;;;23.35;77.75;99919.25;5070219;28;20392;-75
2023/07/31 10:42:55;;;;;;;2.63;0.80;;;;;;;23.00;77.40;99889.78;5076222;28;20082;-75
2023/07/31 10:45:30;;;;;;;3.20;0.88;;;;;;;23.39;76.71;99909.28;5072751;28;20021;-76
2023/07/31 10:48:04;;;;;;;2.78;0.70;;;;;;;23.42;76.54;99899.63;5071946;28;20430;-75
2023/07/31 10:50:34;;;;;;;2.40;0.90;;;;;;;23.81;75.13;99906.53;5071120;28;20068;-75
2023/07/31 10:53:03;;;;;;;2.65;0.75;;;;;;;23.90;74.12;99904.63;5073281;28;20035;-74
2023/07/31 10:55:38;;;;;;;2.92;0.70;;;;;;;24.05;73.36;99906.22;5071701;28;20024;-74
2023/07/31 10:58:09;;;;;;;3.53;0.63;;;;;;;24.11;72.57;99905.00;5069430;28;20024;-75
2023/07/31 11:00:41;;;;;;;1.67;0.60;;;;;;;23.97;72.62;99906.97;5069595;28;20116;-74
2023/07/31 11:03:14;;;;;;;4.25;1.08;;;;;;;23.73;72.95;99904.50;5068454;28;20028;-75
2023/07/31 11:05:48;;;;;;;4.35;0.85;;;;;;;23.58;72.84;99908.38;5068995;28;20032;-74
2023/07/31 11:08:22;;;;;;;2.50;0.80;;;;;;;23.67;72.87;99899.09;5070348;28;20029;-74
2023/07/31 11:11:09;;;;;;;3.42;0.80;;;;;;;23.65;72.94;99908.75;5072236;28;20020;-74
2023/07/31 11:13:52;;;;;;;5.43;1.17;;;;;;;23.77;72.40;99905.50;5083171;28;20130;-75
2023/07/31 11:16:22;;;;;;;3.70;0.73;;;;;;;24.02;72.39;99902.16;5090808;28;20016;-74
2023/07/31 11:18:49;;;;;;;3.13;0.82;;;;;;;24.00;72.20;99895.34;5093424;28;20020;-75